Montauk, New York
Current Conditions -  °F | °C
As of 2:56 AM on Sunday 23 Nov 2014 (Local Time) from KGON Reporting Station
Scattered Clouds Scattered Clouds  
Wind Chill: 39°   Ceiling: Unl
Heat Index: 45°   Visibility: 7mi
Dew Point: 30°   Wind: 14mph
Humidity: 56%   Direction: 250°WSW
Pressure: 30.15"   Gusts: 24mph
Location:  41.04°N, 71.95°W
Report Text: KGON 230756Z AUTO 25012G21KT 7SM FEW080 SCT120 07/M01 A3015 RMK AO2 SLP209 T00721011
Loading
Personal Weather Stations






























Interactive Weather Map New forecast layout! Learn more

10-Day Weather Forecast

Advertisements
Track Severe Weather on mobile